Time;durP1;ratioP1;P1;durP2;ratioP2;P2;SDS_P1;SDS_P2;PMS_P1;PMS_P2;Temp;Humidity;BMP_temperature;BMP_pressure;BME280_temperature;BME280_humidity;BME280_pressure;Samples;Min_cycle;Max_cycle;Signal;HPM_P1;HPM_P2
2022/10/02 00:00:15;;;;;;;10.50;2.80;;;15.20;98.70;;;15.57;67.61;98967.75;4983006;28;119042;-70
2022/10/02 00:02:53;;;;;;;2.70;1.30;;;15.20;98.70;;;15.56;67.47;98955.00;4985279;28;122278;-70
2022/10/02 00:05:31;;;;;;;3.70;1.67;;;15.20;98.70;;;15.58;67.50;98966.59;4979800;28;124259;-70
2022/10/02 00:08:04;;;;;;;2.83;1.60;;;15.20;98.60;;;15.57;67.41;98962.19;4968044;28;120734;-70
2022/10/02 00:10:49;;;;;;;7.70;2.10;;;15.10;98.70;;;15.57;67.39;98968.56;4948510;28;118271;-68
2022/10/02 00:13:34;;;;;;;4.63;2.00;;;15.20;98.70;;;15.57;67.35;98978.88;4966907;28;124531;-68
2022/10/02 00:16:04;;;;;;;9.97;2.57;;;15.10;98.60;;;15.55;67.32;98978.41;4963262;28;121526;-70
2022/10/02 00:18:36;;;;;;;5.63;1.80;;;15.10;98.60;;;15.56;67.61;98988.41;4975454;28;120212;-71
2022/10/02 00:21:37;;;;;;;4.30;1.70;;;15.10;98.70;;;15.55;67.60;98981.19;4984448;28;119952;-70
2022/10/02 00:24:10;;;;;;;5.03;2.07;;;15.10;98.70;;;15.54;67.69;98962.88;4981070;28;123954;-70
2022/10/02 00:27:37;;;;;;;7.33;1.80;;;15.10;98.80;;;15.55;68.00;98967.28;4973394;28;124679;-69
2022/10/02 00:30:07;;;;;;;4.73;1.70;;;15.10;98.80;;;15.55;67.99;98965.28;4959230;28;118944;-69
2022/10/02 00:33:12;;;;;;;5.20;1.47;;;15.10;98.90;;;15.57;67.78;98967.75;4941141;28;118793;-69
2022/10/02 00:36:08;;;;;;;2.37;1.47;;;15.20;98.90;;;15.59;67.79;98982.16;4962200;28;124068;-70
2022/10/02 00:38:55;;;;;;;4.40;1.80;;;15.20;99.00;;;15.59;67.85;98977.41;4947938;28;123662;-67
2022/10/02 00:41:45;;;;;;;6.97;2.00;;;15.20;99.00;;;15.62;68.13;98982.28;4963110;28;119380;-70
2022/10/02 00:44:45;;;;;;;4.60;2.13;;;15.20;99.00;;;15.60;68.05;98975.41;4931142;28;119168;-71
2022/10/02 00:47:43;;;;;;;4.70;1.40;;;15.20;99.00;;;15.58;68.13;98970.22;4945320;28;124098;-70
2022/10/02 00:50:32;;;;;;;7.20;2.10;;;15.20;99.00;;;15.58;68.05;98970.22;4965154;28;123875;-70
2022/10/02 00:53:39;;;;;;;3.80;1.80;;;15.20;99.10;;;15.57;68.12;98968.56;4925265;28;119157;-70
2022/10/02 00:56:50;;;;;;;4.37;1.60;;;15.20;99.10;;;15.57;68.20;98970.53;4961535;28;118973;-70
2022/10/02 00:59:57;;;;;;;4.37;1.83;;;15.20;99.20;;;15.56;68.31;98971.69;4957886;28;123703;-70
2022/10/02 01:02:35;;;;;;;6.07;2.00;;;15.20;99.20;;;15.56;68.42;98983.66;4981295;28;124049;-69
2022/10/02 01:05:06;;;;;;;7.60;1.70;;;15.20;99.20;;;15.55;68.41;98975.63;4982380;28;119482;-70
2022/10/02 01:07:35;;;;;;;3.63;1.70;;;15.10;99.20;;;15.57;68.81;98978.88;4970531;28;119276;-70
2022/10/02 01:10:02;;;;;;;7.27;1.90;;;15.20;99.30;;;15.57;68.54;98995.59;4986621;28;123283;-69
2022/10/02 01:12:29;;;;;;;3.13;1.43;;;15.10;99.30;;;15.56;68.67;98989.22;4985833;28;123138;-69
2022/10/02 01:14:55;;;;;;;2.00;1.30;;;16.10;99.80;;;15.55;68.58;98993.16;4975372;28;122466;-69
2022/10/02 01:17:27;;;;;;;5.23;1.70;;;15.10;99.30;;;15.55;68.50;98986.75;4978734;28;120117;-69
2022/10/02 01:19:55;;;;;;;6.50;1.60;;;15.10;99.40;;;15.55;68.65;98993.16;4972882;28;123666;-69
2022/10/02 01:22:44;;;;;;;3.53;1.40;;;15.10;99.40;;;15.54;68.69;98985.94;4979949;28;123596;-70
2022/10/02 01:25:11;;;;;;;4.63;1.60;;;15.10;99.40;;;15.54;68.70;98993.50;4983055;28;119399;-70
2022/10/02 01:27:37;;;;;;;6.57;2.20;;;15.20;99.50;;;15.53;68.66;98984.34;4979793;28;119625;-70
2022/10/02 01:30:10;;;;;;;9.03;2.10;;;15.10;99.50;;;15.55;68.64;98982.00;4981961;28;124037;-70
2022/10/02 01:32:59;;;;;;;5.80;1.60;;;15.10;99.50;;;15.55;68.50;98982.00;4986031;28;123584;-70
2022/10/02 01:35:30;;;;;;;4.97;2.10;;;15.10;99.50;;;15.57;68.81;98981.69;4981265;28;120670;-70
2022/10/02 01:37:58;;;;;;;5.03;1.60;;;15.10;99.50;;;15.58;68.80;98986.91;4976276;28;119142;-70
2022/10/02 01:40:34;;;;;;;4.03;1.40;;;15.20;99.60;;;15.59;68.72;98988.53;4987290;28;123977;-70
2022/10/02 01:43:09;;;;;;;3.60;1.90;;;15.20;99.60;;;15.60;68.69;98981.00;4976300;28;122570;-70
2022/10/02 01:46:00;;;;;;;5.10;1.83;;;15.20;99.60;;;15.59;68.55;98976.59;4973758;28;118555;-70
2022/10/02 01:48:38;;;;;;;3.23;1.70;;;15.20;99.60;;;15.58;68.70;98984.13;4968702;28;118907;-70
2022/10/02 01:51:51;;;;;;;8.83;2.27;;;15.20;99.60;;;15.56;68.63;98991.19;4984774;28;124126;-70
2022/10/02 01:54:55;;;;;;;5.13;1.60;;;15.20;99.60;;;15.55;68.93;98995.13;4953883;28;123576;-70
2022/10/02 01:57:59;;;;;;;7.10;1.80;;;15.20;99.60;;;15.58;68.98;98997.22;4983219;28;120025;-70
2022/10/02 02:00:30;;;;;;;4.10;1.80;;;15.20;99.60;;;15.58;68.97;99008.34;4982971;28;119082;-70
2022/10/02 02:03:21;;;;;;;4.43;2.00;;;15.20;99.70;;;15.58;68.92;99003.63;4985443;28;124220;-70
2022/10/02 02:06:28;;;;;;;3.63;1.33;;;15.20;99.60;;;15.60;68.88;98995.72;4966858;28;123517;-70
2022/10/02 02:09:08;;;;;;;7.20;2.00;;;15.20;99.60;;;15.63;68.73;98994.22;4974338;28;120243;-70
2022/10/02 02:11:40;;;;;;;2.03;1.27;;;15.20;99.70;;;15.65;69.05;98995.53;4982394;28;120077;-70
2022/10/02 02:14:25;;;;;;;5.40;2.20;;;15.30;99.70;;;15.66;69.09;99001.91;4978450;28;124135;-70
2022/10/02 02:17:20;;;;;;;3.33;1.63;;;15.20;99.60;;;15.67;68.85;99003.53;4978579;28;123055;-70
2022/10/02 02:19:57;;;;;;;3.60;1.67;;;15.30;99.70;;;15.70;68.75;99014.03;4970713;28;119352;-70
2022/10/02 02:22:33;;;;;;;9.07;2.03;;;15.30;99.70;;;15.70;68.71;99011.25;4975790;28;119030;-70
2022/10/02 02:25:08;;;;;;;5.33;1.60;;;15.30;99.70;;;15.73;68.66;99004.19;4979580;28;124124;-70
2022/10/02 02:27:40;;;;;;;3.77;1.60;;;15.30;99.70;;;15.72;68.74;98997.81;4976918;28;123841;-70
2022/10/02 02:30:10;;;;;;;3.50;1.20;;;15.30;99.60;;;15.74;68.82;99006.59;4970202;28;119714;-70
2022/10/02 02:32:47;;;;;;;4.50;1.37;;;15.30;99.60;;;15.77;68.57;99003.16;4976942;28;119090;-70
2022/10/02 02:35:39;;;;;;;8.37;1.63;;;15.30;99.60;;;15.78;68.74;99017.91;4987616;28;124135;-70
2022/10/02 02:38:14;;;;;;;3.57;1.57;;;15.30;99.60;;;15.78;68.67;99013.13;4971910;28;123599;-70
2022/10/02 02:40:44;;;;;;;3.20;1.53;;;15.40;99.60;;;15.78;68.69;99007.56;4979626;28;119909;-70
2022/10/02 02:43:23;;;;;;;4.83;1.83;;;15.30;99.60;;;15.79;68.67;98992.47;4980582;28;119400;-70
2022/10/02 02:46:03;;;;;;;7.27;1.80;;;15.30;99.60;;;15.79;68.49;98998.03;4982648;28;124281;-70
2022/10/02 02:48:40;;;;;;;8.43;1.67;;;15.30;99.60;;;15.80;68.40;98988.53;4984454;28;123844;-70
2022/10/02 02:51:14;;;;;;;2.80;1.37;;;15.40;99.60;;;15.82;68.40;99005.72;4979601;28;119178;-70
2022/10/02 02:54:00;;;;;;;5.20;1.60;;;15.40;99.60;;;15.81;68.35;99000.50;4971239;28;119392;-70
2022/10/02 02:56:28;;;;;;;4.33;1.60;;;15.40;99.60;;;15.81;68.70;98995.72;4971460;28;124349;-70
2022/10/02 02:59:14;;;;;;;3.57;1.23;;;15.40;99.50;;;15.80;68.54;99004.44;4977673;28;124008;-70
2022/10/02 03:01:41;;;;;;;4.80;1.73;;;15.40;99.60;;;15.80;68.72;99004.44;4983840;28;120978;-70
2022/10/02 03:04:13;;;;;;;4.73;1.50;;;15.40;99.60;;;15.81;68.57;99006.06;4982739;28;119957;-69
2022/10/02 03:06:45;;;;;;;3.00;1.27;;;15.80;99.90;;;15.80;68.86;99016.41;4986709;28;125186;-69
2022/10/02 03:09:19;;;;;;;10.53;1.73;;;15.50;99.70;;;15.80;68.46;99019.19;4985134;28;123840;-69
2022/10/02 03:12:02;;;;;;;4.77;1.40;;;15.40;99.60;;;15.77;68.83;99022.66;4984551;28;119028;-70
2022/10/02 03:14:55;;;;;;;4.53;1.70;;;15.40;99.70;;;15.74;68.72;99023.31;4975620;28;119403;-69
2022/10/02 03:17:51;;;;;;;3.67;2.17;;;15.30;99.60;;;15.71;68.98;99024.00;4973287;28;124044;-69
2022/10/02 03:20:51;;;;;;;11.53;1.77;;;15.30;99.70;;;15.68;68.93;99019.94;4985181;28;123912;-69
2022/10/02 03:23:35;;;;;;;3.53;1.50;;;15.30;99.70;;;15.67;69.07;99011.91;4970283;28;119208;-69
2022/10/02 03:26:12;;;;;;;5.93;1.87;;;15.30;99.70;;;15.66;69.21;99011.09;4985451;28;118726;-70
2022/10/02 03:28:50;;;;;;;2.30;1.40;;;15.30;99.70;;;15.68;69.08;99019.09;4979660;28;123913;-69
2022/10/02 03:31:19;;;;;;;6.60;1.57;;;15.30;99.80;;;15.69;69.03;99006.84;4977966;28;123840;-69
2022/10/02 03:33:46;;;;;;;3.90;1.60;;;15.30;99.80;;;15.72;69.01;99013.69;4959682;28;118540;-69
2022/10/02 03:36:16;;;;;;;4.00;1.57;;;15.30;99.80;;;15.72;69.06;99008.13;4986480;28;119101;-69
2022/10/02 03:38:44;;;;;;;6.00;2.00;;;15.30;99.80;;;15.72;69.11;99013.69;4974934;28;124739;-69
2022/10/02 03:41:11;;;;;;;7.30;2.20;;;15.30;99.80;;;15.70;69.17;99016.81;4988076;28;123230;-69
2022/10/02 03:43:37;;;;;;;4.60;1.50;;;15.30;99.80;;;15.68;69.21;99007.94;4983515;28;119280;-70
2022/10/02 03:46:04;;;;;;;4.63;1.50;;;15.30;99.80;;;15.69;69.36;99004.06;4985684;28;119526;-69
2022/10/02 03:48:31;;;;;;;6.33;1.50;;;15.30;99.90;;;15.68;69.37;99005.16;4986143;28;124609;-69
2022/10/02 03:50:57;;;;;;;4.30;1.67;;;15.30;99.90;;;15.70;69.51;99000.09;4971299;28;122842;-69
2022/10/02 03:53:33;;;;;;;4.87;1.77;;;15.30;99.90;;;15.70;69.41;98991.75;4984397;28;120611;-69
2022/10/02 03:56:19;;;;;;;6.03;1.60;;;15.30;99.90;;;15.70;69.44;98994.53;4972161;28;120570;-70
2022/10/02 03:58:48;;;;;;;4.40;1.50;;;15.30;99.90;;;15.73;69.38;99010.56;4983218;28;123792;-69
2022/10/02 04:01:38;;;;;;;3.93;1.80;;;15.40;99.90;;;15.72;69.17;99003.38;4984864;28;124155;-69
2022/10/02 04:04:17;;;;;;;3.67;1.60;;;15.30;99.90;;;15.75;69.34;99004.66;4969470;28;118204;-69
2022/10/02 04:06:59;;;;;;;4.50;1.40;;;15.30;99.90;;;15.74;69.41;98995.47;4980814;28;119441;-69
2022/10/02 04:09:44;;;;;;;9.00;2.47;;;15.30;99.90;;;15.74;69.22;99003.81;4984904;28;125281;-69
2022/10/02 04:12:21;;;;;;;3.10;1.50;;;15.30;99.90;;;15.73;69.31;99004.19;4976774;28;123731;-69
2022/10/02 04:15:03;;;;;;;3.50;1.60;;;15.40;99.90;;;15.73;69.37;99010.56;4976109;28;119249;-69
2022/10/02 04:17:43;;;;;;;6.20;1.70;;;15.30;99.90;;;15.74;69.53;99014.97;4981924;28;118298;-69
2022/10/02 04:20:24;;;;;;;3.77;1.53;;;15.40;99.90;;;15.75;69.49;99013.00;4984917;28;124104;-69
2022/10/02 04:23:06;;;;;;;8.93;1.70;;;15.30;99.90;;;15.74;69.39;99026.09;4971676;28;123465;-69
2022/10/02 04:25:38;;;;;;;3.40;1.60;;;15.30;99.90;;;15.75;69.32;99022.19;4966495;28;119301;-69
2022/10/02 04:28:11;;;;;;;7.77;2.27;;;15.30;99.90;;;15.76;69.34;99012.66;4974795;28;118876;-69
2022/10/02 04:30:37;;;;;;;2.47;1.23;;;15.70;99.90;;;15.78;69.32;99009.53;4983472;28;123904;-69
2022/10/02 04:33:33;;;;;;;4.70;1.70;;;15.60;99.90;;;15.78;69.08;99007.56;4979098;28;124113;-69
2022/10/02 04:36:03;;;;;;;5.67;1.80;;;15.40;99.90;;;15.80;69.06;99016.41;4980722;28;119019;-69
2022/10/02 04:38:55;;;;;;;4.00;1.70;;;15.40;99.90;;;15.81;69.21;99018.03;4983201;28;121368;-69
2022/10/02 04:41:52;;;;;;;4.83;1.60;;;15.40;99.90;;;15.80;69.05;99016.41;4975407;28;124281;-69
2022/10/02 04:44:45;;;;;;;4.30;1.77;;;15.40;99.90;;;15.82;69.03;99016.84;4950529;28;122816;-69
2022/10/02 04:47:48;;;;;;;3.83;1.53;;;15.40;99.90;;;15.85;69.00;99015.34;4968323;28;120241;-69
2022/10/02 04:50:47;;;;;;;5.43;2.03;;;15.40;99.90;;;15.86;69.00;99020.59;4967921;28;119663;-69
2022/10/02 04:53:38;;;;;;;5.97;1.90;;;15.40;99.90;;;15.89;68.84;99013.53;4968778;28;124134;-69
2022/10/02 04:57:09;;;;;;;4.60;1.53;;;15.40;99.90;;;15.93;68.68;99014.44;4965799;28;123699;-69
2022/10/02 05:00:02;;;;;;;6.93;1.90;;;15.50;99.90;;;15.96;68.62;99013.78;4939484;28;118071;-69
2022/10/02 05:03:04;;;;;;;4.93;1.50;;;15.50;99.90;;;15.98;68.45;99010.66;4976750;28;119909;-68
2022/10/02 05:06:21;;;;;;;4.03;1.87;;;15.50;99.90;;;15.99;68.66;99015.91;4972387;28;124421;-69
2022/10/02 05:09:11;;;;;;;3.10;1.50;;;15.50;99.90;;;16.02;68.19;99006.84;4971001;28;124480;-69
2022/10/02 05:12:12;;;;;;;2.50;1.67;;;15.50;99.80;;;16.04;68.46;99009.25;4983454;28;120164;-69
2022/10/02 05:15:17;;;;;;;2.30;1.53;;;15.50;99.80;;;16.05;68.44;99005.34;4973169;28;118079;-69
2022/10/02 05:18:20;;;;;;;3.00;1.30;;;15.60;99.70;;;16.06;68.04;99001.38;4965054;28;123820;-69
2022/10/02 05:21:33;;;;;;;4.60;1.40;;;15.60;99.70;;;16.05;68.18;99002.56;4982958;28;124467;-69
2022/10/02 05:24:31;;;;;;;7.10;1.80;;;15.60;99.70;;;16.06;67.97;99001.38;4971140;28;119604;-69
2022/10/02 05:27:35;;;;;;;4.47;1.60;;;15.60;99.60;;;16.06;67.82;99001.38;4977876;28;118422;-70
2022/10/02 05:30:18;;;;;;;3.60;1.70;;;15.60;99.60;;;16.08;68.14;99004.66;4972181;28;125089;-69
2022/10/02 05:33:21;;;;;;;5.40;1.63;;;15.60;99.50;;;16.07;67.86;99006.63;4974661;28;124233;-70
2022/10/02 05:36:11;;;;;;;2.63;1.60;;;15.60;99.50;;;16.07;67.61;99009.41;4978477;28;119267;-71
2022/10/02 05:38:55;;;;;;;3.70;1.37;;;15.60;99.40;;;16.08;67.57;99007.44;4973520;28;118809;-68
2022/10/02 05:41:48;;;;;;;2.93;1.40;;;15.60;99.40;;;16.09;67.62;99011.84;4965064;28;123617;-68
2022/10/02 05:44:36;;;;;;;5.53;1.60;;;15.60;99.30;;;16.09;67.64;99012.69;4963118;28;123797;-68
2022/10/02 05:47:14;;;;;;;2.70;1.63;;;15.60;99.30;;;16.11;67.66;99017.88;4972359;28;120425;-68
2022/10/02 05:49:52;;;;;;;6.23;2.27;;;15.60;99.30;;;16.11;67.50;99010.34;4978900;28;119543;-69
2022/10/02 05:52:26;;;;;;;5.20;1.67;;;15.60;99.30;;;16.12;67.51;99002.81;4958662;28;123092;-68
2022/10/02 05:55:22;;;;;;;3.80;1.57;;;15.70;99.40;;;16.12;67.61;99012.00;4963471;28;123515;-68
2022/10/02 05:58:05;;;;;;;5.60;1.80;;;15.70;99.40;;;16.13;67.51;99015.59;4988131;28;119194;-68
2022/10/02 06:00:43;;;;;;;3.47;1.73;;;15.60;99.30;;;16.15;67.44;99018.84;4964373;28;118000;-68
2022/10/02 06:03:16;;;;;;;3.90;1.57;;;15.60;99.30;;;16.14;67.68;99031.13;4977704;28;123164;-68
2022/10/02 06:06:09;;;;;;;5.47;1.73;;;15.60;99.30;;;16.15;67.64;99031.94;4964002;28;122974;-68
2022/10/02 06:08:43;;;;;;;2.10;1.30;;;15.70;99.40;;;16.15;67.71;99026.38;4956867;28;117956;-69
2022/10/02 06:11:32;;;;;;;3.27;1.70;;;15.60;99.30;;;16.13;67.67;99027.53;4969217;28;118427;-69
2022/10/02 06:14:09;;;;;;;2.77;1.37;;;15.60;99.30;;;16.15;67.63;99034.72;4927434;28;1206618;-68
2022/10/02 06:16:46;;;;;;;4.50;1.40;;;15.60;99.30;;;16.13;67.82;99035.91;4979727;28;123930;-68
2022/10/02 06:19:27;;;;;;;3.93;2.00;;;15.70;99.40;;;16.12;67.82;99039.06;4968480;28;119290;-68
2022/10/02 06:22:12;;;;;;;3.10;1.63;;;15.60;99.30;;;16.11;67.76;99035.44;4970927;28;119125;-68
2022/10/02 06:24:56;;;;;;;5.37;1.90;;;15.70;99.40;;;16.11;68.02;99032.63;4976324;28;124008;-68
2022/10/02 06:27:55;;;;;;;4.03;1.77;;;15.60;99.40;;;16.12;67.95;99027.91;4970667;28;124034;-68
2022/10/02 06:30:25;;;;;;;4.10;1.73;;;15.60;99.40;;;16.11;68.19;99020.69;4980193;28;119268;-69
2022/10/02 06:32:55;;;;;;;3.50;1.60;;;15.60;99.50;;;16.11;68.29;99015.91;4977179;28;118093;-69
2022/10/02 06:36:03;;;;;;;4.23;2.00;;;15.60;99.50;;;16.11;67.99;99003.94;4968704;28;124319;-71
2022/10/02 06:39:06;;;;;;;5.20;2.00;;;15.60;99.50;;;16.09;67.97;99000.69;4980795;28;123690;-69
2022/10/02 06:42:27;;;;;;;5.77;1.77;;;15.60;99.60;;;16.07;68.12;98991.88;4963121;28;120227;-70
2022/10/02 06:45:24;;;;;;;4.30;1.93;;;15.60;99.60;;;16.06;68.21;98987.44;4960453;28;119916;-70
2022/10/02 06:48:30;;;;;;;5.43;1.70;;;15.60;99.60;;;16.05;68.32;98971.91;4978322;28;122944;-70
2022/10/02 06:51:09;;;;;;;3.83;1.73;;;15.70;99.80;;;16.07;68.65;98970.38;4958115;28;124062;-70
2022/10/02 06:54:10;;;;;;;4.70;1.33;;;15.60;99.80;;;16.09;68.32;98987.59;4963505;28;119967;-70
2022/10/02 06:56:57;;;;;;;5.27;2.10;;;15.60;99.90;;;16.09;68.47;98987.59;4975310;28;119052;-70
2022/10/02 06:59:39;;;;;;;2.13;1.50;;;15.60;99.90;;;16.11;68.71;98987.22;4983430;28;123279;-72
2022/10/02 07:02:49;;;;;;;2.53;1.33;;;15.60;99.90;;;16.11;68.76;98990.00;4980516;28;123023;-69
2022/10/02 07:05:40;;;;;;;2.27;1.67;;;15.60;99.90;;;16.12;68.54;98988.88;4978425;28;119160;-69
2022/10/02 07:08:18;;;;;;;2.13;1.47;;;15.60;99.90;;;16.13;68.81;98980.16;4980713;28;119476;-70
2022/10/02 07:11:21;;;;;;;4.27;1.50;;;15.60;99.90;;;16.13;68.82;98991.31;4968053;28;123880;-69
2022/10/02 07:14:12;;;;;;;5.30;1.57;;;15.60;99.90;;;16.13;68.86;98976.56;4972197;28;123973;-68
2022/10/02 07:17:23;;;;;;;3.03;1.60;;;15.60;99.90;;;16.12;68.87;98972.16;4978966;28;119880;-69
2022/10/02 07:20:17;;;;;;;4.93;1.60;;;15.70;99.90;;;16.12;68.93;98966.56;4978767;28;118691;-69
2022/10/02 07:23:13;;;;;;;8.30;2.00;;;15.70;99.90;;;16.12;69.05;98958.22;4954139;28;122749;-69
2022/10/02 07:26:09;;;;;;;3.90;2.00;;;15.60;99.90;;;16.10;68.98;98963.31;4978315;28;124104;-67
2022/10/02 07:29:04;;;;;;;5.23;1.70;;;15.70;99.90;;;16.09;69.24;98951.34;4968771;28;119502;-68
2022/10/02 07:31:37;;;;;;;5.43;1.77;;;15.60;99.90;;;16.10;69.36;98960.53;4981084;28;118611;-69
2022/10/02 07:34:57;;;;;;;5.70;2.00;;;15.80;99.90;;;16.10;69.42;98957.75;4983656;28;124364;-68
2022/10/02 07:37:58;;;;;;;3.90;1.67;;;15.70;99.90;;;16.10;69.30;98952.16;4974334;28;124155;-68
2022/10/02 07:40:42;;;;;;;8.77;2.00;;;15.60;99.90;;;16.13;69.74;98948.69;4970602;28;120294;-69
2022/10/02 07:43:37;;;;;;;3.40;2.00;;;15.80;99.90;;;16.13;69.53;98949.50;4979245;28;120035;-70
2022/10/02 07:46:25;;;;;;;7.20;2.20;;;15.60;99.90;;;16.15;69.60;98951.94;4984733;28;124000;-72
2022/10/02 07:49:28;;;;;;;5.27;2.03;;;15.60;99.90;;;16.15;69.69;98957.53;4976667;28;124061;-70
2022/10/02 07:52:30;;;;;;;4.03;1.90;;;15.70;99.90;;;16.14;69.93;98953.09;4981805;28;119702;-68
2022/10/02 07:55:14;;;;;;;2.90;1.77;;;15.70;99.90;;;16.15;69.73;98949.16;4983290;28;118594;-70
2022/10/02 07:58:04;;;;;;;9.03;2.50;;;15.80;99.90;;;16.14;69.97;98950.28;4973694;28;125609;-70
2022/10/02 08:00:50;;;;;;;6.17;2.20;;;15.70;99.90;;;16.15;69.95;98959.47;4957039;28;122904;-70
2022/10/02 08:03:31;;;;;;;5.20;2.00;;;15.70;99.90;;;16.14;70.09;98953.09;4970287;28;119079;-69
2022/10/02 08:05:59;;;;;;;4.20;1.90;;;15.60;99.90;;;16.15;70.09;98948.31;4972556;28;118752;-69
2022/10/02 08:08:47;;;;;;;5.57;2.53;;;15.70;99.90;;;16.16;69.93;98950.78;4966742;28;123229;-69
2022/10/02 08:11:35;;;;;;;3.53;1.70;;;15.70;99.90;;;16.18;69.83;98958.81;4967591;28;123745;-69
2022/10/02 08:14:14;;;;;;;8.80;2.50;;;15.70;99.90;;;16.20;70.05;98962.88;4982839;28;119874;-69
2022/10/02 08:16:51;;;;;;;4.90;2.00;;;15.70;99.90;;;16.21;69.95;98960.91;4960614;28;118135;-69
2022/10/02 08:19:35;;;;;;;12.10;2.53;;;15.70;99.90;;;16.23;69.99;98967.75;4956924;28;124030;-69
2022/10/02 08:22:19;;;;;;;5.10;2.13;;;15.70;99.90;;;16.24;69.99;98968.56;4968724;28;123441;-69
2022/10/02 08:24:51;;;;;;;5.57;1.70;;;15.70;99.90;;;16.26;69.90;98955.91;4964964;28;119299;-69
2022/10/02 08:27:24;;;;;;;5.33;2.30;;;15.70;99.90;;;16.29;69.82;98948.81;4982458;28;118010;-69
2022/10/02 08:29:57;;;;;;;4.83;2.10;;;16.20;99.90;;;16.30;70.16;98934.50;4974961;28;123861;-69
2022/10/02 08:32:30;;;;;;;8.60;1.97;;;15.90;99.90;;;16.33;69.87;98944.16;4976251;28;123354;-69
2022/10/02 08:34:58;;;;;;;7.63;2.83;;;15.80;99.90;;;16.37;70.15;98944.31;4974610;28;120224;-69
2022/10/02 08:37:36;;;;;;;3.30;2.00;;;15.80;99.90;;;16.39;69.97;98936.38;4973002;28;119709;-70
2022/10/02 08:41:07;;;;;;;8.40;2.27;;;15.80;99.90;;;16.40;69.73;98938.84;4969736;28;124007;-69
2022/10/02 08:44:20;;;;;;;11.33;3.13;;;15.80;99.90;;;16.38;69.71;98940.34;4977122;28;123851;-69
2022/10/02 08:46:58;;;;;;;8.47;2.10;;;15.80;99.90;;;16.40;69.86;98932.44;4976558;28;118345;-68
2022/10/02 08:49:43;;;;;;;6.50;2.33;;;15.80;99.90;;;16.46;69.57;98926.28;4974844;28;118960;-68
2022/10/02 08:52:45;;;;;;;5.47;2.90;;;15.90;99.90;;;16.51;69.71;98922.44;4982067;28;124037;-66
2022/10/02 08:56:04;;;;;;;4.90;2.37;;;15.90;99.90;;;16.55;69.50;98917.81;4977824;28;123807;-67
2022/10/02 08:58:47;;;;;;;7.03;2.60;;;16.00;99.90;;;16.56;69.47;98920.22;4947870;28;119750;-67
2022/10/02 09:02:11;;;;;;;6.20;2.40;;;16.00;99.90;;;16.56;69.62;98919.44;4982277;28;118894;-68
2022/10/02 09:05:28;;;;;;;5.30;2.30;;;16.00;99.90;;;16.57;69.63;98910.69;4969371;28;124273;-68
2022/10/02 09:08:10;;;;;;;4.50;1.87;;;18.00;99.90;;;16.65;69.77;98908.94;4967588;28;123573;-69
2022/10/02 09:11:01;;;;;;;4.60;2.20;;;16.10;99.90;;;16.74;69.45;98898.50;4981675;28;119069;-69
2022/10/02 09:13:42;;;;;;;8.00;2.60;;;16.20;99.90;;;16.83;69.38;98906.75;4976507;28;118788;-68
2022/10/02 09:16:49;;;;;;;9.97;2.50;;;16.20;99.90;;;16.86;69.04;98889.31;4983095;28;123974;-69
2022/10/02 09:20:05;;;;;;;4.57;2.23;;;16.30;99.90;;;16.87;69.15;98890.94;4968726;28;123625;-68
2022/10/02 09:23:40;;;;;;;4.83;2.50;;;16.40;99.90;;;16.88;69.03;98886.19;4983660;28;119437;-68
2022/10/02 09:27:03;;;;;;;8.90;2.47;;;16.40;99.90;;;16.93;68.83;98885.94;4979918;28;119600;-69
2022/10/02 09:30:26;;;;;;;4.20;2.43;;;16.40;99.90;;;16.96;68.65;98894.41;4979863;28;124014;-69
2022/10/02 09:33:22;;;;;;;4.97;2.30;;;16.40;99.90;;;17.03;68.47;98891.00;4978752;28;123906;-68
2022/10/02 09:35:53;;;;;;;4.83;2.57;;;16.50;99.90;;;17.09;68.57;98886.81;4980433;28;119647;-68
2022/10/02 09:38:41;;;;;;;6.93;2.70;;;16.50;99.90;;;17.17;68.43;98882.25;4972844;28;120263;-68
2022/10/02 09:41:37;;;;;;;7.40;2.60;;;16.60;99.90;;;17.22;68.21;98885.59;4975728;28;125012;-68
2022/10/02 09:44:33;;;;;;;5.10;2.13;;;16.70;99.90;;;17.28;68.09;98876.97;4978612;28;123821;-68
2022/10/02 09:47:40;;;;;;;4.30;2.50;;;16.70;99.90;;;17.29;68.03;98889.75;4983394;28;120414;-68
2022/10/02 09:50:33;;;;;;;6.60;2.50;;;16.70;99.90;;;17.27;67.84;98886.50;4975208;28;120362;-68
2022/10/02 09:53:24;;;;;;;5.77;1.87;;;16.70;99.90;;;17.19;67.98;98889.13;4977827;28;123954;-68
2022/10/02 09:56:12;;;;;;;5.33;2.17;;;16.70;99.90;;;17.18;67.96;98895.84;4979449;28;124122;-69
2022/10/02 09:59:21;;;;;;;7.30;2.37;;;16.60;99.90;;;17.12;68.12;98896.47;4981834;28;118968;-68
2022/10/02 10:02:10;;;;;;;8.60;2.40;;;16.60;99.90;;;17.05;68.28;98902.63;4977298;28;118620;-68
2022/10/02 10:04:53;;;;;;;3.50;1.73;;;16.50;99.90;;;16.96;68.32;98899.97;4980690;28;124059;-68
2022/10/02 10:07:40;;;;;;;6.90;2.30;;;16.40;99.90;;;16.91;68.71;98908.59;4974088;28;123894;-68
2022/10/02 10:10:37;;;;;;;4.70;2.13;;;16.40;99.90;;;16.87;68.91;98920.81;4979401;28;119380;-67
2022/10/02 10:13:31;;;;;;;6.37;2.20;;;16.40;99.90;;;16.78;68.95;98909.78;4974307;28;119041;-69
2022/10/02 10:17:07;;;;;;;6.40;2.20;;;16.30;99.90;;;16.71;69.33;98920.69;4961720;28;123125;-68
2022/10/02 10:20:07;;;;;;;3.93;2.40;;;16.20;99.90;;;16.71;69.67;98927.09;4968093;28;123769;-69
2022/10/02 10:23:13;;;;;;;4.00;2.17;;;16.20;99.90;;;16.71;69.74;98934.63;4979260;28;118826;-68
2022/10/02 10:25:58;;;;;;;2.50;1.87;;;16.20;99.90;;;16.74;69.85;98943.13;4979604;28;117400;-69
2022/10/02 10:28:49;;;;;;;5.17;2.00;;;16.20;99.90;;;16.81;69.79;98919.44;4971927;28;124020;-69
2022/10/02 10:31:51;;;;;;;4.80;1.60;;;16.30;99.90;;;16.83;69.49;98903.97;4977111;28;123693;-68
2022/10/02 10:34:36;;;;;;;3.50;1.93;;;16.30;99.90;;;16.78;69.35;98898.63;4976976;28;120701;-69
2022/10/02 10:40:42;;;;;;;3.40;1.80;;;16.30;99.90;;;16.86;69.67;98916.41;4972766;28;125765;-68
2022/10/02 10:43:45;;;;;;;6.10;1.77;;;16.30;99.90;;;16.86;69.44;98910.81;4953259;28;123649;-68
2022/10/02 10:46:58;;;;;;;1.93;1.60;;;16.40;99.90;;;16.81;69.40;98919.44;4942566;28;119361;-68
2022/10/02 10:49:42;;;;;;;1.73;1.23;;;16.30;99.90;;;16.80;69.35;98928.97;4960830;28;119323;-68
2022/10/02 10:52:45;;;;;;;2.70;1.40;;;16.30;99.90;;;16.74;69.41;98947.91;4957826;28;124023;-69
2022/10/02 10:55:35;;;;;;;3.70;1.57;;;16.30;99.90;;;16.72;69.58;98944.66;4931981;28;122662;-70
2022/10/02 10:58:20;;;;;;;2.93;1.40;;;16.20;99.90;;;16.70;69.33;98931.03;4957204;28;119683;-69
2022/10/02 11:01:12;;;;;;;3.53;1.40;;;16.20;99.90;;;16.71;69.60;98938.25;4942550;28;118749;-68
2022/10/02 11:04:06;;;;;;;3.20;2.47;;;16.20;99.90;;;16.75;69.57;98930.81;4956673;28;124842;-69
2022/10/02 11:07:12;;;;;;;2.30;1.33;;;16.30;99.90;;;16.76;69.46;98943.59;4942116;28;123937;-69
2022/10/02 11:10:07;;;;;;;1.93;1.40;;;16.30;99.90;;;16.71;69.36;98949.41;4901452;28;119899;-69
2022/10/02 11:13:00;;;;;;;1.40;1.17;;;16.20;99.90;;;16.77;69.45;98947.22;4902203;28;119067;-69
2022/10/02 11:16:07;;;;;;;1.50;1.10;;;16.30;99.90;;;16.82;69.19;98952.59;4904706;28;124389;-69
2022/10/02 11:18:47;;;;;;;3.23;1.33;;;16.30;99.90;;;16.84;69.21;98957.78;4915091;28;123857;-69
2022/10/02 11:21:38;;;;;;;2.03;1.30;;;16.40;99.90;;;16.86;69.04;98949.88;4913181;28;119414;-68
2022/10/02 11:24:21;;;;;;;2.20;1.30;;;16.40;99.90;;;16.90;69.16;98953.59;4924208;28;119232;-68
2022/10/02 11:27:38;;;;;;;1.60;1.10;;;16.40;99.90;;;16.87;68.94;98963.50;4915032;28;124012;-68
2022/10/02 11:30:34;;;;;;;2.10;1.10;;;16.40;99.90;;;16.84;69.10;98947.44;4875857;28;123437;-68
2022/10/02 11:33:19;;;;;;;1.27;1.17;;;16.40;99.90;;;16.84;68.76;98953.03;4899623;28;119276;-68
2022/10/02 11:36:14;;;;;;;4.40;1.10;;;16.30;99.90;;;16.84;68.75;98946.63;4921932;28;119967;-68
2022/10/02 11:39:25;;;;;;;1.87;1.60;;;16.40;99.90;;;16.83;68.77;98933.84;4899818;28;124818;-67
2022/10/02 11:41:58;;;;;;;2.40;1.20;;;16.30;99.90;;;16.88;68.97;98936.41;4968141;28;123749;-68